createdAt,value
2018-06-30T00:02:25.525Z,3.05
2018-06-30T00:04:54.150Z,2.70
2018-06-30T00:07:23.517Z,2.65
2018-06-30T00:09:51.862Z,2.90
2018-06-30T00:12:20.336Z,2.40
2018-06-30T00:14:48.724Z,2.33
2018-06-30T00:17:17.102Z,2.30
2018-06-30T00:19:45.671Z,2.52
2018-06-30T00:22:14.122Z,2.65
2018-06-30T00:24:42.594Z,2.60
2018-06-30T00:27:16.107Z,2.27
2018-06-30T00:29:44.466Z,2.37
2018-06-30T00:32:12.856Z,2.47
2018-06-30T00:34:41.244Z,2.42
2018-06-30T00:37:09.674Z,2.33
2018-06-30T00:39:38.264Z,2.50
2018-06-30T00:42:06.600Z,2.30
2018-06-30T00:44:34.968Z,2.30
2018-06-30T00:47:03.970Z,2.20
2018-06-30T00:49:32.360Z,3.00
2018-06-30T00:52:00.960Z,2.42
2018-06-30T00:54:29.501Z,2.30
2018-06-30T00:56:57.894Z,2.30
2018-06-30T00:59:26.193Z,2.12
2018-06-30T01:01:54.660Z,2.20
2018-06-30T01:04:23.157Z,2.12
2018-06-30T01:06:51.534Z,2.30
2018-06-30T01:09:19.833Z,2.30
2018-06-30T01:11:48.399Z,2.20
2018-06-30T01:14:17.011Z,2.12
2018-06-30T01:16:45.572Z,1.92
2018-06-30T01:19:14.848Z,2.17
2018-06-30T01:21:43.244Z,2.33
2018-06-30T01:24:11.618Z,2.50
2018-06-30T01:26:39.965Z,1.92
2018-06-30T01:29:08.390Z,2.30
2018-06-30T01:31:36.819Z,2.47
2018-06-30T01:34:05.301Z,2.25
2018-06-30T01:36:33.630Z,2.15
2018-06-30T01:39:01.962Z,2.27
2018-06-30T01:41:30.396Z,2.02
2018-06-30T01:43:58.718Z,1.90
2018-06-30T01:46:27.057Z,2.20
2018-06-30T01:48:55.658Z,2.15
2018-06-30T01:51:24.032Z,1.95
2018-06-30T01:53:52.371Z,2.00
2018-06-30T01:56:20.760Z,1.87
2018-06-30T01:58:49.070Z,2.00
2018-06-30T02:01:22.586Z,2.10
2018-06-30T02:03:50.974Z,2.00
2018-06-30T02:06:19.352Z,2.35
2018-06-30T02:08:47.777Z,2.22
2018-06-30T02:11:16.208Z,1.87
2018-06-30T02:13:44.532Z,1.77
2018-06-30T02:16:12.984Z,2.25
2018-06-30T02:18:41.328Z,1.75
2018-06-30T02:21:09.700Z,2.20
2018-06-30T02:23:37.985Z,1.90
2018-06-30T02:26:06.354Z,2.10
2018-06-30T02:28:34.858Z,1.75
2018-06-30T02:31:03.191Z,2.10
2018-06-30T02:33:31.491Z,2.20
2018-06-30T02:35:59.919Z,2.08
2018-06-30T02:38:28.272Z,1.92
2018-06-30T02:40:56.730Z,1.82
2018-06-30T02:43:25.096Z,1.77
2018-06-30T02:45:53.928Z,1.90
2018-06-30T02:48:22.252Z,2.20
2018-06-30T02:50:50.723Z,1.52
2018-06-30T02:53:19.168Z,1.90
2018-06-30T02:55:47.546Z,1.70
2018-06-30T02:58:15.915Z,1.60
2018-06-30T03:00:44.340Z,1.70
2018-06-30T03:03:12.644Z,1.80
2018-06-30T03:05:41.061Z,1.70
2018-06-30T03:08:09.458Z,2.15
2018-06-30T03:10:37.838Z,2.00
2018-06-30T03:13:07.226Z,1.70
2018-06-30T03:15:35.624Z,1.70
2018-06-30T03:18:03.980Z,1.82
2018-06-30T03:20:32.394Z,1.92
2018-06-30T03:23:05.992Z,1.80
2018-06-30T03:25:34.310Z,2.02
2018-06-30T03:28:02.608Z,1.50
2018-06-30T03:30:31.942Z,1.82
2018-06-30T03:33:00.402Z,1.82
2018-06-30T03:35:28.768Z,1.98
2018-06-30T03:37:57.674Z,1.42
2018-06-30T03:40:26.057Z,1.80
2018-06-30T03:42:54.548Z,2.00
2018-06-30T03:45:22.930Z,1.70
2018-06-30T03:47:51.448Z,1.50
2018-06-30T03:50:19.805Z,1.62
2018-06-30T03:52:48.190Z,1.70
2018-06-30T03:55:16.664Z,1.37
2018-06-30T03:57:45.050Z,1.60
2018-06-30T04:00:13.378Z,1.50
2018-06-30T04:02:41.798Z,1.82
2018-06-30T04:05:10.160Z,1.40
2018-06-30T04:07:38.616Z,1.65
2018-06-30T04:10:07.092Z,1.65
2018-06-30T04:12:35.444Z,1.80
2018-06-30T04:15:03.796Z,1.57
2018-06-30T04:17:32.342Z,1.55
2018-06-30T04:20:00.696Z,1.50
2018-06-30T04:22:29.032Z,1.85
2018-06-30T04:24:57.476Z,1.57
2018-06-30T04:27:26.445Z,1.47
2018-06-30T04:29:55.523Z,1.57
2018-06-30T04:32:24.128Z,1.50
2018-06-30T04:34:52.890Z,1.42
2018-06-30T04:37:21.260Z,1.47
2018-06-30T04:39:49.609Z,1.42
2018-06-30T04:42:31.742Z,1.50
2018-06-30T04:45:00.662Z,1.50
2018-06-30T04:47:30.781Z,1.82
2018-06-30T04:49:59.511Z,1.62
2018-06-30T04:52:28.968Z,1.50
2018-06-30T04:54:57.560Z,2.00
2018-06-30T04:57:26.346Z,1.57
2018-06-30T04:59:56.241Z,1.60
2018-06-30T05:02:24.831Z,1.85
2018-06-30T05:04:53.557Z,1.40
2018-06-30T05:07:22.031Z,1.50
2018-06-30T05:09:50.657Z,1.20
2018-06-30T05:12:19.154Z,1.50
2018-06-30T05:14:48.386Z,1.50
2018-06-30T05:17:16.938Z,1.70
2018-06-30T05:19:45.540Z,1.45
2018-06-30T05:22:14.323Z,1.50
2018-06-30T05:24:42.781Z,1.75
2018-06-30T05:27:11.269Z,1.62
2018-06-30T05:29:39.679Z,1.45
2018-06-30T05:32:08.161Z,1.20
2018-06-30T05:34:36.916Z,1.32
2018-06-30T05:37:06.268Z,2.33
2018-06-30T05:39:35.351Z,1.65
2018-06-30T05:44:56.635Z,1.70
2018-06-30T05:47:25.069Z,1.60
2018-06-30T05:49:53.592Z,1.50
2018-06-30T05:52:22.128Z,1.62
2018-06-30T05:54:50.644Z,1.75
2018-06-30T05:57:19.398Z,2.30
2018-06-30T05:59:48.181Z,1.50
2018-06-30T06:02:16.703Z,1.52
2018-06-30T06:04:45.191Z,1.90
2018-06-30T06:07:13.751Z,1.87
2018-06-30T06:09:42.634Z,1.42
2018-06-30T06:12:11.885Z,1.60
2018-06-30T06:14:40.739Z,1.50
2018-06-30T06:17:09.468Z,1.57
2018-06-30T06:19:37.813Z,1.30
2018-06-30T06:22:06.663Z,1.50
2018-06-30T06:24:35.538Z,1.60
2018-06-30T06:27:04.248Z,1.52
2018-06-30T06:29:32.946Z,1.22
2018-06-30T06:32:01.532Z,1.70
2018-06-30T06:34:30.390Z,1.50
2018-06-30T06:36:58.800Z,1.02
2018-06-30T06:39:27.165Z,1.10
2018-06-30T06:41:57.454Z,1.40
2018-06-30T06:44:25.990Z,1.00
2018-06-30T06:46:54.487Z,1.20
2018-06-30T06:49:22.987Z,1.30
2018-06-30T06:51:51.573Z,1.57
2018-06-30T06:54:20.253Z,1.50
2018-06-30T06:56:50.235Z,1.22
2018-06-30T06:59:18.790Z,0.95
2018-06-30T07:01:47.456Z,1.25
2018-06-30T07:04:15.828Z,1.30
2018-06-30T07:06:44.394Z,1.32
2018-06-30T07:09:13.247Z,1.35
2018-06-30T07:11:41.987Z,1.20
2018-06-30T07:14:11.100Z,1.20
2018-06-30T07:16:39.594Z,1.82
2018-06-30T07:19:08.124Z,1.42
2018-06-30T07:21:46.380Z,1.12
2018-06-30T07:24:16.027Z,1.20
2018-06-30T07:26:45.674Z,1.10
2018-06-30T07:29:15.324Z,1.25
2018-06-30T07:31:45.144Z,1.10
2018-06-30T07:34:20.176Z,1.05
2018-06-30T07:36:53.166Z,0.90
2018-06-30T07:39:22.168Z,0.70
2018-06-30T07:41:53.592Z,0.72
2018-06-30T07:44:24.395Z,1.42
2018-06-30T07:46:53.757Z,1.10
2018-06-30T07:49:23.766Z,1.07
2018-06-30T07:52:00.102Z,1.07
2018-06-30T07:54:29.392Z,1.00
2018-06-30T07:57:01.170Z,1.00
2018-06-30T07:59:31.001Z,1.60
2018-06-30T08:02:13.191Z,0.90
2018-06-30T08:04:42.502Z,0.95
2018-06-30T08:07:13.914Z,0.95
2018-06-30T08:09:45.317Z,0.95
2018-06-30T08:15:10.548Z,1.35
2018-06-30T08:17:40.356Z,2.45
2018-06-30T08:20:12.684Z,1.55
2018-06-30T08:34:28.972Z,0.80
2018-06-30T08:37:02.127Z,0.90
2018-06-30T08:39:31.796Z,1.25
2018-06-30T08:42:14.952Z,1.05
2018-06-30T08:44:48.896Z,1.15
2018-06-30T08:47:19.854Z,1.30
2018-06-30T08:49:57.675Z,2.00
2018-06-30T08:52:31.860Z,1.00
2018-06-30T08:55:10.357Z,1.40
2018-06-30T08:57:47.853Z,1.10
2018-06-30T09:00:17.882Z,1.87
2018-06-30T09:02:49.314Z,0.93
2018-06-30T09:05:18.881Z,1.10
2018-06-30T09:07:52.068Z,1.57
2018-06-30T09:10:25.016Z,2.10
2018-06-30T09:12:53.960Z,1.40
2018-06-30T09:15:22.492Z,1.67
2018-06-30T09:17:51.044Z,1.30
2018-06-30T09:20:20.500Z,1.47
2018-06-30T09:22:49.945Z,0.98
2018-06-30T09:25:18.574Z,1.07
2018-06-30T09:27:47.062Z,0.90
2018-06-30T09:30:15.448Z,0.80
2018-06-30T09:32:44.340Z,0.90
2018-06-30T09:35:14.968Z,1.00
2018-06-30T09:37:43.480Z,1.35
2018-06-30T09:40:12.070Z,1.55
2018-06-30T09:42:40.695Z,1.62
2018-06-30T09:45:09.222Z,0.93
2018-06-30T09:47:37.943Z,1.20
2018-06-30T09:50:06.730Z,2.02
2018-06-30T09:52:35.347Z,0.90
2018-06-30T09:55:04.106Z,0.82
2018-06-30T09:57:33.088Z,1.00
2018-06-30T10:00:01.572Z,0.90
2018-06-30T10:02:30.279Z,0.80
2018-06-30T10:04:59.329Z,1.07
2018-06-30T10:07:27.987Z,1.47
2018-06-30T10:09:56.777Z,1.40
2018-06-30T10:12:25.603Z,1.00
2018-06-30T10:14:54.121Z,1.27
2018-06-30T10:17:22.523Z,0.82
2018-06-30T10:19:51.427Z,1.15
2018-06-30T10:22:20.249Z,1.00
2018-06-30T10:24:49.470Z,1.00
2018-06-30T10:27:17.989Z,0.90
2018-06-30T10:29:46.743Z,1.57
2018-06-30T10:32:25.497Z,1.17
2018-06-30T10:34:53.969Z,1.25
2018-06-30T10:37:22.583Z,1.10
2018-06-30T10:39:51.907Z,1.82
2018-06-30T10:42:21.567Z,1.30
2018-06-30T10:44:50.387Z,2.08
2018-06-30T10:47:19.237Z,1.07
2018-06-30T10:49:49.015Z,1.10
2018-06-30T10:52:17.532Z,1.60
2018-06-30T10:54:46.036Z,1.42
2018-06-30T10:57:15.666Z,0.90
2018-06-30T10:59:44.630Z,0.80
2018-06-30T11:02:13.764Z,1.00
2018-06-30T11:04:44.023Z,0.90
2018-06-30T11:07:12.904Z,0.90
2018-06-30T11:09:42.682Z,0.90
2018-06-30T11:12:29.764Z,1.20
2018-06-30T11:14:59.091Z,0.93
2018-06-30T11:17:28.603Z,1.00
2018-06-30T11:19:57.700Z,1.00
2018-06-30T11:22:27.308Z,0.80
2018-06-30T11:24:56.298Z,1.00
2018-06-30T11:27:26.074Z,1.50
2018-06-30T11:29:54.880Z,0.88
2018-06-30T11:32:24.139Z,1.00
2018-06-30T11:34:53.098Z,1.27
2018-06-30T11:37:22.446Z,1.00
2018-06-30T11:39:51.032Z,1.30
2018-06-30T11:42:19.450Z,1.20
2018-06-30T11:44:48.059Z,1.07
2018-06-30T11:47:17.717Z,0.85
2018-06-30T11:49:46.731Z,1.03
2018-06-30T11:52:15.189Z,0.90
2018-06-30T11:54:43.680Z,0.93
2018-06-30T11:57:12.137Z,1.02
2018-06-30T11:59:40.771Z,1.10
2018-06-30T12:02:09.691Z,0.90
2018-06-30T12:04:38.183Z,0.98
2018-06-30T12:07:07.435Z,1.10
2018-06-30T12:09:35.773Z,0.85
2018-06-30T12:12:04.297Z,1.00
2018-06-30T12:14:32.751Z,1.20
2018-06-30T12:17:01.812Z,0.90
2018-06-30T12:19:31.591Z,0.95
2018-06-30T12:22:01.245Z,1.07
2018-06-30T12:24:30.095Z,1.00
2018-06-30T12:26:58.620Z,0.88
2018-06-30T12:29:27.159Z,1.10
2018-06-30T12:31:55.682Z,1.40
2018-06-30T12:34:24.101Z,1.15
2018-06-30T12:36:52.594Z,1.07
2018-06-30T12:39:21.038Z,0.93
2018-06-30T12:41:49.529Z,0.90
2018-06-30T12:44:18.004Z,0.80
2018-06-30T12:46:46.580Z,1.05
2018-06-30T12:49:15.154Z,0.87
2018-06-30T12:51:43.750Z,0.70
2018-06-30T12:54:12.407Z,1.00
2018-06-30T12:56:40.652Z,1.20
2018-06-30T12:59:09.264Z,0.80
2018-06-30T13:01:37.790Z,1.00
2018-06-30T13:04:06.259Z,0.90
2018-06-30T13:06:35.117Z,1.20
2018-06-30T13:09:04.672Z,1.00
2018-06-30T13:11:33.456Z,1.07
2018-06-30T13:14:01.904Z,1.20
2018-06-30T13:16:30.326Z,0.93
2018-06-30T13:18:59.093Z,1.02
2018-06-30T13:21:27.643Z,1.00
2018-06-30T13:23:56.099Z,1.07
2018-06-30T13:26:24.638Z,1.00
2018-06-30T13:28:53.279Z,0.90
2018-06-30T13:31:21.709Z,1.00
2018-06-30T13:33:50.172Z,1.00
2018-06-30T13:36:18.622Z,1.00
2018-06-30T13:38:47.084Z,1.10
2018-06-30T13:41:15.644Z,1.02
2018-06-30T13:43:44.125Z,1.10
2018-06-30T13:46:12.864Z,1.02
2018-06-30T13:48:41.310Z,1.07
2018-06-30T13:51:09.943Z,1.20
2018-06-30T13:53:38.383Z,0.93
2018-06-30T13:56:07.336Z,1.30
2018-06-30T13:58:35.839Z,0.98
2018-06-30T14:01:04.379Z,1.27
2018-06-30T14:03:32.789Z,1.00
2018-06-30T14:06:01.266Z,1.07
2018-06-30T14:08:29.679Z,1.10
2018-06-30T14:10:59.081Z,1.60
2018-06-30T14:13:28.449Z,1.10
2018-06-30T14:15:56.945Z,1.20
2018-06-30T14:18:26.737Z,1.00
2018-06-30T14:20:55.419Z,1.50
2018-06-30T14:23:25.313Z,1.30
2018-06-30T14:25:54.640Z,1.00
2018-06-30T14:28:24.047Z,1.00
2018-06-30T14:30:52.662Z,0.88
2018-06-30T14:33:26.621Z,1.00
2018-06-30T14:35:55.571Z,2.00
2018-06-30T14:38:24.226Z,1.20
2018-06-30T14:40:53.178Z,1.05
2018-06-30T14:43:21.756Z,1.27
2018-06-30T14:45:50.090Z,1.10
2018-06-30T14:48:18.794Z,1.00
2018-06-30T14:50:47.449Z,0.80
2018-06-30T14:53:16.040Z,1.80
2018-06-30T14:55:44.516Z,1.27
2018-06-30T14:58:12.932Z,1.22
2018-06-30T15:00:41.458Z,1.50
2018-06-30T15:03:10.255Z,1.20
2018-06-30T15:05:38.838Z,1.27
2018-06-30T15:08:07.609Z,1.35
2018-06-30T15:10:36.209Z,1.55
2018-06-30T15:13:05.092Z,0.90
2018-06-30T15:15:33.576Z,1.35
2018-06-30T15:18:02.069Z,1.20
2018-06-30T15:20:30.551Z,1.12
2018-06-30T15:22:59.218Z,1.10
2018-06-30T15:25:27.761Z,1.60
2018-06-30T15:27:56.544Z,1.40
2018-06-30T15:30:26.317Z,1.10
2018-06-30T15:32:55.290Z,0.95
2018-06-30T15:35:24.079Z,1.30
2018-06-30T15:37:52.535Z,1.50
2018-06-30T15:40:20.962Z,1.17
2018-06-30T15:42:49.759Z,1.17
2018-06-30T15:45:20.660Z,1.30
2018-06-30T15:47:50.232Z,1.25
2018-06-30T15:50:18.945Z,2.20
2018-06-30T15:52:47.704Z,2.12
2018-06-30T15:55:16.419Z,1.42
2018-06-30T15:57:46.352Z,1.32
2018-06-30T16:00:15.371Z,1.40
2018-06-30T16:02:45.407Z,1.50
2018-06-30T16:05:15.041Z,1.12
2018-06-30T16:07:50.133Z,1.63
2018-06-30T16:10:19.809Z,3.58
2018-06-30T16:12:48.352Z,2.90
2018-06-30T16:15:18.421Z,2.02
2018-06-30T16:17:47.008Z,1.30
2018-06-30T16:20:15.504Z,1.33
2018-06-30T16:22:44.028Z,1.20
2018-06-30T16:25:12.502Z,1.30
2018-06-30T16:27:41.135Z,1.60
2018-06-30T16:30:09.968Z,1.92
2018-06-30T16:32:38.753Z,1.40
2018-06-30T16:35:08.323Z,2.00
2018-06-30T16:37:38.185Z,2.03
2018-06-30T16:40:07.889Z,2.62
2018-06-30T16:42:36.827Z,1.60
2018-06-30T16:45:06.645Z,1.72
2018-06-30T16:47:35.419Z,1.60
2018-06-30T16:50:04.171Z,1.20
2018-06-30T16:52:32.557Z,1.40
2018-06-30T16:55:01.145Z,2.10
2018-06-30T16:57:29.821Z,1.60
2018-06-30T16:59:58.515Z,1.12
2018-06-30T17:02:27.039Z,1.10
2018-06-30T17:04:55.580Z,1.90
2018-06-30T17:07:24.002Z,1.80
2018-06-30T17:09:52.445Z,1.20
2018-06-30T17:12:21.043Z,1.70
2018-06-30T17:14:49.547Z,1.60
2018-06-30T17:17:18.077Z,1.60
2018-06-30T17:19:46.877Z,1.70
2018-06-30T17:22:15.859Z,1.60
2018-06-30T17:24:44.291Z,1.70
2018-06-30T17:27:12.876Z,1.60
2018-06-30T17:29:41.400Z,1.70
2018-06-30T17:32:09.939Z,1.70
2018-06-30T17:34:38.771Z,1.87
2018-06-30T17:37:07.437Z,1.80
2018-06-30T17:39:36.135Z,1.40
2018-06-30T17:42:04.977Z,2.10
2018-06-30T17:44:33.669Z,1.60
2018-06-30T17:47:07.203Z,1.50
2018-06-30T17:49:35.936Z,2.00
2018-06-30T17:52:06.395Z,3.90
2018-06-30T17:54:35.291Z,2.08
2018-06-30T17:57:05.585Z,2.30
2018-06-30T17:59:38.963Z,2.70
2018-06-30T18:02:08.165Z,1.90
2018-06-30T18:04:37.091Z,1.57
2018-06-30T18:07:05.855Z,1.90
2018-06-30T18:09:35.349Z,2.05
2018-06-30T18:12:03.811Z,1.73
2018-06-30T18:14:32.489Z,1.85
2018-06-30T18:17:03.150Z,1.80
2018-06-30T18:19:31.769Z,1.90
2018-06-30T18:22:00.635Z,1.60
2018-06-30T18:24:29.165Z,1.70
2018-06-30T18:26:57.984Z,1.47
2018-06-30T18:29:27.658Z,1.60
2018-06-30T18:31:56.354Z,1.60
2018-06-30T18:34:24.994Z,1.70
2018-06-30T18:36:53.795Z,1.50
2018-06-30T18:39:22.798Z,1.70
2018-06-30T18:41:53.419Z,1.80
2018-06-30T18:44:22.105Z,2.00
2018-06-30T18:46:51.885Z,2.10
2018-06-30T18:49:21.743Z,1.90
2018-06-30T18:51:50.473Z,2.00
2018-06-30T18:54:19.474Z,1.60
2018-06-30T18:56:48.005Z,1.90
2018-06-30T18:59:18.766Z,1.92
2018-06-30T19:01:48.182Z,2.22
2018-06-30T19:04:16.887Z,1.92
2018-06-30T19:06:46.908Z,2.03
2018-06-30T19:09:15.741Z,2.10
2018-06-30T19:11:44.405Z,2.08
2018-06-30T19:14:13.419Z,1.70
2018-06-30T19:16:42.326Z,1.85
2018-06-30T19:19:11.053Z,1.82
2018-06-30T19:21:40.443Z,2.05
2018-06-30T19:24:10.452Z,2.00
2018-06-30T19:26:39.691Z,2.10
2018-06-30T19:29:08.278Z,2.33
2018-06-30T19:31:37.214Z,2.10
2018-06-30T19:34:05.901Z,1.57
2018-06-30T19:36:34.860Z,1.70
2018-06-30T19:39:03.867Z,1.72
2018-06-30T19:41:32.539Z,1.60
2018-06-30T19:44:02.113Z,2.00
2018-06-30T19:46:31.055Z,2.00
2018-06-30T19:49:00.260Z,1.90
2018-06-30T19:51:29.051Z,2.08
2018-06-30T19:53:58.773Z,2.00
2018-06-30T19:56:27.376Z,1.90
2018-06-30T19:58:57.485Z,2.20
2018-06-30T20:01:31.945Z,3.60
2018-06-30T20:04:03.189Z,1.90
2018-06-30T20:06:32.450Z,1.77
2018-06-30T20:09:01.043Z,1.80
2018-06-30T20:11:29.656Z,1.70
2018-06-30T20:13:58.736Z,1.70
2018-06-30T20:16:27.561Z,1.67
2018-06-30T20:18:58.752Z,1.67
2018-06-30T20:24:43.293Z,2.17
2018-06-30T20:27:12.551Z,1.85
2018-06-30T20:29:41.034Z,2.00
2018-06-30T20:32:09.794Z,1.70
2018-06-30T20:34:40.124Z,2.02
2018-06-30T20:37:09.079Z,2.47
2018-06-30T20:39:38.023Z,2.50
2018-06-30T20:42:07.759Z,2.03
2018-06-30T20:44:37.227Z,1.70
2018-06-30T20:47:14.233Z,2.00
2018-06-30T20:49:44.686Z,2.33
2018-06-30T20:52:15.501Z,2.72
2018-06-30T20:54:44.275Z,2.10
2018-06-30T20:57:12.953Z,2.00
2018-06-30T20:59:41.909Z,1.90
2018-06-30T21:02:11.411Z,1.90
2018-06-30T21:04:42.169Z,2.13
2018-06-30T21:07:11.653Z,2.37
2018-06-30T21:09:44.243Z,2.10
2018-06-30T21:12:12.961Z,2.20
2018-06-30T21:14:41.808Z,2.20
2018-06-30T21:17:10.533Z,2.00
2018-06-30T21:19:39.645Z,2.17
2018-06-30T21:22:08.079Z,2.00
2018-06-30T21:24:36.507Z,2.10
2018-06-30T21:27:05.239Z,1.92
2018-06-30T21:29:34.167Z,1.90
2018-06-30T21:32:02.859Z,1.80
2018-06-30T21:34:34.003Z,2.10
2018-06-30T21:37:02.775Z,1.85
2018-06-30T21:39:31.657Z,1.90
2018-06-30T21:42:10.136Z,1.90
2018-06-30T21:44:39.648Z,2.00
2018-06-30T21:47:08.212Z,1.80
2018-06-30T21:49:36.705Z,2.50
2018-06-30T21:52:05.131Z,2.77
2018-06-30T21:54:33.631Z,2.50
2018-06-30T21:57:02.417Z,2.43
2018-06-30T21:59:31.705Z,2.20
2018-06-30T22:02:00.265Z,2.00
2018-06-30T22:04:28.645Z,2.25
2018-06-30T22:06:57.269Z,2.17
2018-06-30T22:09:25.969Z,2.00
2018-06-30T22:11:54.397Z,2.30
2018-06-30T22:14:24.872Z,2.17
2018-06-30T22:16:53.303Z,2.30
2018-06-30T22:19:24.194Z,2.35
2018-06-30T22:21:53.007Z,2.30
2018-06-30T22:24:21.766Z,2.22
2018-06-30T22:26:50.213Z,2.40
2018-06-30T22:29:18.615Z,2.33
2018-06-30T22:32:00.763Z,1.90
2018-06-30T22:34:29.229Z,2.10
2018-06-30T22:36:57.615Z,2.25
2018-06-30T22:39:37.775Z,1.72
2018-06-30T22:42:06.429Z,2.22
2018-06-30T22:44:34.900Z,2.02
2018-06-30T22:47:03.983Z,2.00
2018-06-30T22:49:34.660Z,2.10
2018-06-30T22:52:13.004Z,2.02
2018-06-30T22:54:41.657Z,2.00
2018-06-30T22:57:10.315Z,2.20
2018-06-30T22:59:39.719Z,2.08
2018-06-30T23:02:08.398Z,2.12
2018-06-30T23:04:36.957Z,2.37
2018-06-30T23:07:07.411Z,2.15
2018-06-30T23:09:35.740Z,2.10
2018-06-30T23:15:20.187Z,1.80
2018-06-30T23:17:48.690Z,1.92
2018-06-30T23:20:17.303Z,2.17
2018-06-30T23:22:56.056Z,2.17
2018-06-30T23:25:26.662Z,1.95
2018-06-30T23:27:55.801Z,1.92
2018-06-30T23:30:25.560Z,1.82
2018-06-30T23:32:55.106Z,2.33
2018-06-30T23:35:26.574Z,2.12
2018-06-30T23:37:57.356Z,2.22
2018-06-30T23:40:26.629Z,1.98
2018-06-30T23:46:01.386Z,1.92
2018-06-30T23:48:29.924Z,1.80
2018-06-30T23:50:59.324Z,1.82
2018-06-30T23:53:27.946Z,1.80
2018-06-30T23:55:57.018Z,1.75
2018-06-30T23:58:25.496Z,1.80
